createdAt,value
2022-11-30T00:01:00.254Z,81.72
2022-11-30T00:03:26.856Z,81.74
2022-11-30T00:05:53.461Z,83.89
2022-11-30T00:08:19.886Z,80.53
2022-11-30T00:10:46.430Z,83.12
2022-11-30T00:13:12.844Z,84.24
2022-11-30T00:15:39.318Z,86.91
2022-11-30T00:18:05.844Z,85.96
2022-11-30T00:20:32.791Z,85.38
2022-11-30T00:22:59.215Z,84.42
2022-11-30T00:25:25.883Z,84.60
2022-11-30T00:27:52.694Z,82.68
2022-11-30T00:30:19.219Z,86.06
2022-11-30T00:32:45.757Z,86.34
2022-11-30T00:35:12.250Z,85.02
2022-11-30T00:37:38.792Z,84.79
2022-11-30T00:40:06.352Z,85.87
2022-11-30T00:42:32.821Z,83.41
2022-11-30T00:44:59.237Z,86.32
2022-11-30T00:47:25.675Z,86.33
2022-11-30T00:49:52.076Z,85.46
2022-11-30T00:52:18.515Z,82.43
2022-11-30T00:54:45.128Z,83.79
2022-11-30T00:57:11.731Z,86.07
2022-11-30T00:59:38.131Z,84.90
2022-11-30T01:02:04.615Z,84.48
2022-11-30T01:04:31.078Z,82.05
2022-11-30T01:06:57.497Z,81.06
2022-11-30T01:09:23.935Z,79.72
2022-11-30T01:11:50.358Z,81.43
2022-11-30T01:14:16.857Z,81.82
2022-11-30T01:16:43.430Z,81.04
2022-11-30T01:19:09.857Z,84.16
2022-11-30T01:21:36.272Z,85.00
2022-11-30T01:24:02.741Z,82.97
2022-11-30T01:26:29.152Z,84.80
2022-11-30T01:28:56.517Z,82.33
2022-11-30T01:31:24.709Z,81.14
2022-11-30T01:33:53.023Z,80.78
2022-11-30T01:36:22.208Z,85.02
2022-11-30T01:38:51.268Z,85.72
2022-11-30T01:41:22.207Z,82.09
2022-11-30T01:43:52.057Z,85.38
2022-11-30T01:46:18.510Z,83.76
2022-11-30T01:48:45.871Z,88.47
2022-11-30T01:51:12.399Z,86.46
2022-11-30T01:53:38.830Z,84.78
2022-11-30T01:56:05.580Z,83.16
2022-11-30T01:58:32.389Z,85.71
2022-11-30T02:00:59.749Z,85.57
2022-11-30T02:03:39.767Z,85.29
2022-11-30T02:06:06.492Z,82.26
2022-11-30T02:08:33.260Z,82.69
2022-11-30T02:11:04.375Z,81.65
2022-11-30T02:13:48.717Z,81.31
2022-11-30T02:16:52.710Z,82.02
2022-11-30T02:19:32.408Z,81.16
2022-11-30T02:21:58.812Z,79.85
2022-11-30T02:24:28.032Z,80.78
2022-11-30T02:27:17.688Z,81.81
2022-11-30T02:29:49.060Z,82.75
2022-11-30T02:32:23.008Z,82.68
2022-11-30T02:34:51.778Z,84.06
2022-11-30T02:37:19.518Z,83.75
2022-11-30T02:39:45.967Z,83.69
2022-11-30T02:42:14.016Z,82.52
2022-11-30T02:44:42.694Z,83.09
2022-11-30T02:47:22.394Z,86.72
2022-11-30T02:50:10.940Z,84.03
2022-11-30T02:52:37.520Z,82.48
2022-11-30T02:55:09.341Z,84.28
2022-11-30T02:57:36.184Z,84.01
2022-11-30T03:00:07.169Z,83.77
2022-11-30T03:02:34.242Z,84.05
2022-11-30T03:05:00.681Z,81.44
2022-11-30T03:07:27.197Z,83.12
2022-11-30T03:09:53.728Z,85.62
2022-11-30T03:12:20.164Z,82.85
2022-11-30T03:14:46.861Z,81.99
2022-11-30T03:17:13.475Z,81.57
2022-11-30T03:19:39.953Z,79.92
2022-11-30T03:22:06.520Z,84.66
2022-11-30T03:24:32.980Z,82.97
2022-11-30T03:26:59.403Z,80.89
2022-11-30T03:29:25.829Z,83.32
2022-11-30T03:31:52.262Z,81.04
2022-11-30T03:34:18.769Z,79.94
2022-11-30T03:36:45.205Z,79.08
2022-11-30T03:39:11.654Z,80.70
2022-11-30T03:41:38.065Z,81.40
2022-11-30T03:44:04.498Z,80.26
2022-11-30T03:46:30.990Z,81.04
2022-11-30T03:48:57.440Z,80.69
2022-11-30T03:51:23.905Z,81.61
2022-11-30T03:53:50.353Z,81.80
2022-11-30T03:56:16.862Z,80.60
2022-11-30T03:58:43.329Z,79.66
2022-11-30T04:01:15.665Z,78.68
2022-11-30T04:03:42.939Z,82.31
2022-11-30T04:06:11.884Z,81.88
2022-11-30T04:08:39.079Z,85.33
2022-11-30T04:11:06.346Z,81.84
2022-11-30T04:13:34.127Z,81.39
2022-11-30T04:16:00.859Z,84.11
2022-11-30T04:18:29.890Z,85.59
2022-11-30T04:20:58.573Z,86.15
2022-11-30T04:23:26.457Z,88.35
2022-11-30T04:25:52.868Z,85.44
2022-11-30T04:28:20.108Z,85.92
2022-11-30T04:30:46.912Z,85.27
2022-11-30T04:33:15.500Z,82.99
2022-11-30T04:35:47.079Z,85.77
2022-11-30T04:38:13.576Z,87.12
2022-11-30T04:40:41.078Z,89.16
2022-11-30T04:43:08.636Z,88.49
2022-11-30T04:45:35.674Z,88.15
2022-11-30T04:48:02.917Z,84.55
2022-11-30T04:50:29.530Z,88.38
2022-11-30T04:52:56.616Z,87.34
2022-11-30T04:55:23.452Z,88.77
2022-11-30T04:57:49.954Z,89.89
2022-11-30T05:00:18.038Z,88.93
2022-11-30T05:02:50.705Z,86.87
2022-11-30T05:05:19.108Z,86.53
2022-11-30T05:07:49.994Z,89.94
2022-11-30T05:10:16.904Z,86.57
2022-11-30T05:12:43.440Z,84.45
2022-11-30T05:15:10.325Z,85.39
2022-11-30T05:17:36.745Z,83.42
2022-11-30T05:20:03.457Z,86.66
2022-11-30T05:22:29.982Z,89.67
2022-11-30T05:24:56.419Z,87.26
2022-11-30T05:27:23.017Z,89.27
2022-11-30T05:29:49.574Z,89.65
2022-11-30T05:32:16.000Z,89.54
2022-11-30T05:34:50.526Z,88.19
2022-11-30T05:37:18.380Z,85.70
2022-11-30T05:39:44.927Z,86.78
2022-11-30T05:42:11.604Z,84.57
2022-11-30T05:44:38.020Z,83.89
2022-11-30T05:47:04.562Z,87.16
2022-11-30T05:49:31.021Z,87.11
2022-11-30T05:51:57.442Z,88.29
2022-11-30T05:54:23.867Z,88.12
2022-11-30T05:56:54.701Z,87.68
2022-11-30T06:02:03.707Z,86.68
2022-11-30T06:04:30.424Z,88.61
2022-11-30T06:06:56.891Z,85.61
2022-11-30T06:09:23.532Z,86.12
2022-11-30T06:11:50.340Z,87.56
2022-11-30T06:14:17.097Z,86.82
2022-11-30T06:16:43.588Z,87.40
2022-11-30T06:19:10.053Z,87.71
2022-11-30T06:21:36.450Z,87.24
2022-11-30T06:24:03.088Z,85.04
2022-11-30T06:26:29.549Z,87.23
2022-11-30T06:28:56.005Z,85.98
2022-11-30T06:31:22.591Z,90.04
2022-11-30T06:33:49.223Z,90.46
2022-11-30T06:36:21.605Z,88.54
2022-11-30T06:38:48.109Z,88.73
2022-11-30T06:41:14.548Z,90.93
2022-11-30T06:43:41.183Z,90.70
2022-11-30T06:46:07.978Z,89.16
2022-11-30T06:48:35.054Z,90.58
2022-11-30T06:51:04.546Z,90.44
2022-11-30T06:53:31.748Z,90.04
2022-11-30T06:55:58.168Z,89.37
2022-11-30T06:58:24.636Z,90.89
2022-11-30T07:00:51.105Z,90.49
2022-11-30T07:03:17.614Z,90.74
2022-11-30T07:05:46.082Z,89.94
2022-11-30T07:08:14.373Z,87.74
2022-11-30T07:10:45.620Z,86.46
2022-11-30T07:13:18.094Z,85.63
2022-11-30T07:15:45.250Z,84.95
2022-11-30T07:18:12.436Z,85.42
2022-11-30T07:20:39.749Z,88.48
2022-11-30T07:23:25.381Z,86.55
2022-11-30T07:26:09.236Z,84.66
2022-11-30T07:28:37.856Z,86.80
2022-11-30T07:31:16.843Z,87.49
2022-11-30T07:33:44.083Z,88.75
2022-11-30T07:36:11.245Z,87.63
2022-11-30T07:38:38.485Z,90.48
2022-11-30T07:41:05.395Z,90.72
2022-11-30T07:43:33.037Z,91.14
2022-11-30T07:46:01.200Z,90.02
2022-11-30T07:48:28.315Z,91.79
2022-11-30T07:51:01.451Z,89.60
2022-11-30T07:53:28.352Z,85.26
2022-11-30T07:55:56.963Z,88.12
2022-11-30T07:58:23.518Z,89.19
2022-11-30T08:00:49.997Z,91.51
2022-11-30T08:03:16.560Z,88.75
2022-11-30T08:05:43.080Z,87.22
2022-11-30T08:08:09.507Z,85.53
2022-11-30T08:10:35.985Z,84.10
2022-11-30T08:13:02.402Z,85.38
2022-11-30T08:15:32.436Z,87.96
2022-11-30T08:18:05.184Z,88.67
2022-11-30T08:20:31.621Z,86.47
2022-11-30T08:22:58.807Z,88.22
2022-11-30T08:25:25.236Z,90.00
2022-11-30T08:27:51.706Z,87.99
2022-11-30T08:30:18.188Z,90.19
2022-11-30T08:32:44.653Z,92.01
2022-11-30T08:35:11.072Z,91.29
2022-11-30T08:37:37.965Z,92.83
2022-11-30T08:40:05.984Z,95.17
2022-11-30T08:42:32.405Z,90.65
2022-11-30T08:44:59.159Z,91.41
2022-11-30T08:47:25.789Z,91.10
2022-11-30T08:49:52.705Z,93.54
2022-11-30T08:52:19.362Z,91.47
2022-11-30T08:54:48.035Z,88.93
2022-11-30T08:57:17.442Z,91.52
2022-11-30T08:59:44.291Z,92.36
2022-11-30T09:02:13.272Z,89.99
2022-11-30T09:04:39.803Z,91.30
2022-11-30T09:07:06.282Z,92.05
2022-11-30T09:09:32.807Z,92.52
2022-11-30T09:11:59.334Z,92.11
2022-11-30T09:14:25.781Z,89.42
2022-11-30T09:16:53.897Z,91.58
2022-11-30T09:19:20.662Z,91.95
2022-11-30T09:21:51.811Z,92.50
2022-11-30T09:24:19.108Z,89.16
2022-11-30T09:26:45.603Z,91.93
2022-11-30T09:29:12.078Z,91.08
2022-11-30T09:31:38.496Z,92.01
2022-11-30T09:34:05.315Z,93.06
2022-11-30T09:36:33.405Z,92.69
2022-11-30T09:38:59.906Z,90.37
2022-11-30T09:41:50.727Z,93.53
2022-11-30T09:44:31.775Z,93.06
2022-11-30T09:47:33.072Z,92.62
2022-11-30T09:50:04.879Z,91.08
2022-11-30T09:52:39.083Z,94.31
2022-11-30T09:55:09.497Z,90.90
2022-11-30T09:57:58.496Z,92.55
2022-11-30T10:00:25.231Z,91.68
2022-11-30T10:02:53.997Z,92.79
2022-11-30T10:05:29.478Z,93.76
2022-11-30T10:08:18.948Z,91.32
2022-11-30T10:11:07.577Z,94.92
2022-11-30T10:14:02.845Z,91.88
2022-11-30T10:16:35.407Z,92.90
2022-11-30T10:19:31.168Z,88.23
2022-11-30T10:22:19.176Z,88.74
2022-11-30T10:25:12.351Z,89.90
2022-11-30T10:27:53.755Z,91.45
2022-11-30T10:30:22.957Z,88.04
2022-11-30T10:32:53.479Z,85.77
2022-11-30T10:35:29.739Z,88.50
2022-11-30T10:37:58.281Z,88.61
2022-11-30T10:40:41.299Z,90.79
2022-11-30T10:43:37.478Z,86.50
2022-11-30T10:46:05.164Z,91.74
2022-11-30T10:48:40.584Z,92.13
2022-11-30T10:51:09.351Z,92.51
2022-11-30T10:53:36.702Z,88.63
2022-11-30T10:56:10.857Z,85.87
2022-11-30T10:58:58.951Z,89.70
2022-11-30T11:01:44.074Z,88.62
2022-11-30T11:04:23.200Z,88.56
2022-11-30T11:06:56.108Z,87.17
2022-11-30T11:09:36.715Z,84.23
2022-11-30T11:12:07.106Z,84.65
2022-11-30T11:14:37.979Z,88.68
2022-11-30T11:17:20.178Z,85.50
2022-11-30T11:19:49.075Z,85.23
2022-11-30T11:22:24.359Z,89.04
2022-11-30T11:24:56.142Z,86.72
2022-11-30T11:27:27.525Z,87.17
2022-11-30T11:30:07.959Z,87.42
2022-11-30T11:32:35.179Z,85.92
2022-11-30T11:35:01.742Z,85.97
2022-11-30T11:37:31.471Z,86.36
2022-11-30T11:40:01.127Z,87.43
2022-11-30T11:42:34.778Z,86.36
2022-11-30T11:45:02.950Z,88.50
2022-11-30T11:47:40.501Z,86.62
2022-11-30T11:50:50.351Z,87.43
2022-11-30T11:53:23.437Z,88.00
2022-11-30T11:56:25.371Z,86.65
2022-11-30T11:59:05.290Z,90.49
2022-11-30T12:02:01.037Z,87.86
2022-11-30T12:04:48.231Z,92.10
2022-11-30T12:07:33.049Z,91.70
2022-11-30T12:10:16.499Z,88.58
2022-11-30T12:12:51.987Z,86.30
2022-11-30T12:15:31.199Z,89.17
2022-11-30T12:18:12.458Z,90.53
2022-11-30T12:21:13.409Z,89.58
2022-11-30T12:24:04.616Z,91.17
2022-11-30T12:26:44.654Z,90.75
2022-11-30T12:29:35.175Z,89.08
2022-11-30T12:32:24.888Z,87.88
2022-11-30T12:35:09.912Z,86.42
2022-11-30T12:37:47.465Z,86.10
2022-11-30T12:40:32.729Z,85.02
2022-11-30T12:43:20.283Z,83.79
2022-11-30T12:45:48.410Z,87.92
2022-11-30T12:48:28.635Z,90.82
2022-11-30T12:51:13.142Z,89.04
2022-11-30T12:53:46.382Z,87.31
2022-11-30T12:56:45.726Z,90.51
2022-11-30T12:59:12.650Z,92.06
2022-11-30T13:02:11.807Z,90.13
2022-11-30T13:04:43.892Z,91.25
2022-11-30T13:07:37.395Z,89.98
2022-11-30T13:10:18.599Z,88.88
2022-11-30T13:12:51.118Z,89.18
2022-11-30T13:15:35.957Z,89.66
2022-11-30T13:18:03.588Z,87.91
2022-11-30T13:21:06.157Z,90.82
2022-11-30T13:23:44.838Z,91.11
2022-11-30T13:26:27.347Z,88.79
2022-11-30T13:29:14.090Z,91.72
2022-11-30T13:31:47.464Z,91.91
2022-11-30T13:34:26.649Z,91.45
2022-11-30T13:37:03.033Z,89.62
2022-11-30T13:39:56.096Z,88.54
2022-11-30T13:42:40.681Z,91.32
2022-11-30T13:45:12.953Z,92.36
2022-11-30T13:48:00.237Z,91.05
2022-11-30T13:50:32.473Z,91.04
2022-11-30T13:52:59.139Z,89.20
2022-11-30T13:55:52.048Z,89.62
2022-11-30T13:58:19.748Z,86.31
2022-11-30T14:00:48.112Z,85.93
2022-11-30T14:03:20.303Z,88.94
2022-11-30T14:05:51.376Z,86.01
2022-11-30T14:08:23.585Z,85.44
2022-11-30T14:10:52.083Z,87.58
2022-11-30T14:13:22.657Z,86.98
2022-11-30T14:16:00.652Z,87.99
2022-11-30T14:18:29.859Z,88.62
2022-11-30T14:21:29.278Z,85.88
2022-11-30T14:24:03.880Z,87.26
2022-11-30T14:26:36.979Z,88.39
2022-11-30T14:29:12.708Z,86.69
2022-11-30T14:31:54.374Z,87.90
2022-11-30T14:34:31.953Z,88.54
2022-11-30T14:37:03.150Z,87.83
2022-11-30T14:39:38.173Z,85.97
2022-11-30T14:42:06.479Z,88.03
2022-11-30T14:44:39.327Z,85.64
2022-11-30T14:47:27.891Z,88.17
2022-11-30T14:49:57.015Z,85.71
2022-11-30T14:52:50.784Z,85.93
2022-11-30T14:55:50.322Z,87.33
2022-11-30T14:58:40.338Z,84.70
2022-11-30T15:01:23.851Z,83.71
2022-11-30T15:03:53.521Z,81.24
2022-11-30T15:06:25.879Z,83.60
2022-11-30T15:08:55.311Z,81.06
2022-11-30T15:14:09.311Z,82.76
2022-11-30T15:16:36.165Z,84.76
2022-11-30T15:19:38.342Z,86.10
2022-11-30T15:22:04.782Z,86.00
2022-11-30T15:24:31.231Z,86.08
2022-11-30T15:27:10.610Z,83.82
2022-11-30T15:29:41.220Z,86.14
2022-11-30T15:32:16.208Z,86.58
2022-11-30T15:34:54.943Z,84.06
2022-11-30T15:37:39.593Z,83.83
2022-11-30T15:40:09.332Z,82.36
2022-11-30T15:42:40.647Z,84.17
2022-11-30T15:45:21.483Z,84.52
2022-11-30T15:47:48.286Z,86.18
2022-11-30T15:50:26.711Z,85.20
2022-11-30T15:52:55.712Z,86.67
2022-11-30T15:55:56.107Z,84.30
2022-11-30T15:59:00.049Z,84.08
2022-11-30T16:01:27.378Z,81.29
2022-11-30T16:03:58.096Z,83.30
2022-11-30T16:06:50.933Z,86.00
2022-11-30T16:09:17.762Z,85.29
2022-11-30T16:11:44.568Z,83.00
2022-11-30T16:14:16.774Z,83.80
2022-11-30T16:16:43.723Z,84.62
2022-11-30T16:19:10.410Z,83.79
2022-11-30T16:21:37.028Z,82.70
2022-11-30T16:24:03.679Z,85.45
2022-11-30T16:26:50.143Z,84.94
2022-11-30T16:29:16.754Z,85.29
2022-11-30T16:31:43.230Z,83.43
2022-11-30T16:34:11.746Z,81.66
2022-11-30T16:36:38.936Z,81.16
2022-11-30T16:39:05.777Z,82.36
2022-11-30T16:41:34.753Z,83.91
2022-11-30T16:44:01.208Z,80.99
2022-11-30T16:46:29.385Z,78.84
2022-11-30T16:48:56.460Z,78.27
2022-11-30T16:51:27.217Z,77.43
2022-11-30T16:53:54.180Z,77.84
2022-11-30T16:56:21.210Z,79.70
2022-11-30T16:58:48.237Z,79.81
2022-11-30T17:01:34.804Z,80.54
2022-11-30T17:04:11.986Z,81.39
2022-11-30T17:06:38.470Z,82.43
2022-11-30T17:09:04.929Z,81.37
2022-11-30T17:11:34.801Z,83.57
2022-11-30T17:14:01.299Z,82.67
2022-11-30T17:16:27.805Z,80.00
2022-11-30T17:18:54.498Z,80.74
2022-11-30T17:21:28.682Z,80.17
2022-11-30T17:23:55.482Z,83.63
2022-11-30T17:26:21.982Z,81.22
2022-11-30T17:28:48.446Z,79.48
2022-11-30T17:31:15.144Z,78.84
2022-11-30T17:33:47.765Z,79.51
2022-11-30T17:36:16.025Z,79.92
2022-11-30T17:38:43.973Z,81.88
2022-11-30T17:41:18.943Z,81.85
2022-11-30T17:43:46.317Z,82.07
2022-11-30T17:46:18.414Z,81.01
2022-11-30T17:48:45.272Z,79.50
2022-11-30T17:51:12.460Z,79.80
2022-11-30T17:53:40.244Z,82.00
2022-11-30T17:56:08.405Z,80.16
2022-11-30T17:58:43.016Z,78.83
2022-11-30T18:01:24.915Z,77.89
2022-11-30T18:03:52.245Z,77.44
2022-11-30T18:06:19.348Z,77.08
2022-11-30T18:08:46.047Z,76.68
2022-11-30T18:11:15.949Z,75.65
2022-11-30T18:13:42.846Z,76.96
2022-11-30T18:16:15.231Z,76.31
2022-11-30T18:18:47.317Z,78.16
2022-11-30T18:21:17.070Z,79.71
2022-11-30T18:23:43.522Z,79.80
2022-11-30T18:26:15.572Z,78.83
2022-11-30T18:28:42.641Z,81.57
2022-11-30T18:31:09.579Z,78.92
2022-11-30T18:33:36.971Z,79.59
2022-11-30T18:36:07.193Z,80.45
2022-11-30T18:38:37.976Z,81.50
2022-11-30T18:41:05.691Z,80.80
2022-11-30T18:43:33.490Z,78.26
2022-11-30T18:46:08.403Z,78.72
2022-11-30T18:48:36.037Z,78.55
2022-11-30T18:51:13.783Z,81.44
2022-11-30T18:53:41.011Z,83.03
2022-11-30T18:56:13.190Z,82.54
2022-11-30T18:58:40.926Z,82.89
2022-11-30T19:01:09.458Z,80.47
2022-11-30T19:03:37.351Z,79.78
2022-11-30T19:06:05.556Z,79.16
2022-11-30T19:08:32.137Z,82.86
2022-11-30T19:11:06.694Z,82.76
2022-11-30T19:13:33.704Z,81.71
2022-11-30T19:16:05.512Z,82.74
2022-11-30T19:18:32.933Z,82.03
2022-11-30T19:21:00.147Z,82.84
2022-11-30T19:23:26.859Z,83.46
2022-11-30T19:25:58.691Z,82.85
2022-11-30T19:28:25.135Z,82.52
2022-11-30T19:30:51.568Z,83.62
2022-11-30T19:33:18.087Z,82.58
2022-11-30T19:35:44.526Z,83.77
2022-11-30T19:38:10.960Z,84.98
2022-11-30T19:40:37.989Z,82.67
2022-11-30T19:43:04.751Z,82.98
2022-11-30T19:45:31.237Z,80.79
2022-11-30T19:47:57.637Z,83.11
2022-11-30T19:50:24.423Z,81.99
2022-11-30T19:52:50.958Z,80.52
2022-11-30T19:55:17.594Z,82.66
2022-11-30T19:57:44.751Z,81.63
2022-11-30T20:00:12.408Z,83.39
2022-11-30T20:02:38.941Z,82.57
2022-11-30T20:05:05.926Z,83.33
2022-11-30T20:07:32.443Z,84.13
2022-11-30T20:09:59.000Z,83.69
2022-11-30T20:12:25.465Z,82.76
2022-11-30T20:14:52.149Z,84.20
2022-11-30T20:17:18.873Z,83.09
2022-11-30T20:19:45.353Z,81.21
2022-11-30T20:22:11.779Z,84.82
2022-11-30T20:24:38.222Z,80.96
2022-11-30T20:27:04.835Z,84.26
2022-11-30T20:29:31.413Z,83.85
2022-11-30T20:31:58.080Z,83.47
2022-11-30T20:34:28.489Z,80.34
2022-11-30T20:36:57.727Z,83.60
2022-11-30T20:39:24.176Z,81.02
2022-11-30T20:41:50.634Z,81.35
2022-11-30T20:44:17.052Z,84.20
2022-11-30T20:46:43.757Z,81.83
2022-11-30T20:49:17.921Z,83.08
2022-11-30T20:51:45.057Z,83.57
2022-11-30T20:54:12.713Z,81.21
2022-11-30T20:56:39.754Z,84.35
2022-11-30T20:59:09.394Z,80.93
2022-11-30T21:01:36.274Z,82.69
2022-11-30T21:04:02.972Z,83.89
2022-11-30T21:06:30.308Z,84.19
2022-11-30T21:08:57.301Z,82.94
2022-11-30T21:11:24.362Z,81.20
2022-11-30T21:13:51.228Z,81.39
2022-11-30T21:16:27.245Z,83.72
2022-11-30T21:18:55.108Z,81.35
2022-11-30T21:21:24.222Z,83.57
2022-11-30T21:23:51.754Z,81.78
2022-11-30T21:26:33.468Z,78.88
2022-11-30T21:29:06.883Z,77.41
2022-11-30T21:31:33.998Z,82.18
2022-11-30T21:34:01.032Z,78.72
2022-11-30T21:36:28.142Z,81.25
2022-11-30T21:39:05.588Z,80.59
2022-11-30T21:41:38.153Z,81.07
2022-11-30T21:44:05.884Z,78.58
2022-11-30T21:46:33.210Z,78.19
2022-11-30T21:48:59.995Z,79.66
2022-11-30T21:51:28.146Z,79.11
2022-11-30T21:54:00.491Z,80.98
2022-11-30T21:56:35.832Z,80.67
2022-11-30T21:59:04.997Z,82.83
2022-11-30T22:01:37.320Z,81.21
2022-11-30T22:04:06.227Z,80.23
2022-11-30T22:06:35.027Z,80.52
2022-11-30T22:09:07.828Z,81.37
2022-11-30T22:11:39.551Z,81.12
2022-11-30T22:14:07.954Z,79.75
2022-11-30T22:16:36.415Z,80.18
2022-11-30T22:19:04.563Z,81.55
2022-11-30T22:21:31.161Z,81.73
2022-11-30T22:23:58.791Z,80.55
2022-11-30T22:26:29.256Z,78.42
2022-11-30T22:29:06.797Z,77.25
2022-11-30T22:31:39.220Z,75.85
2022-11-30T22:34:06.354Z,75.74
2022-11-30T22:36:34.474Z,76.07
2022-11-30T22:39:11.889Z,76.58
2022-11-30T22:41:39.767Z,76.00
2022-11-30T22:44:06.686Z,75.34
2022-11-30T22:46:37.223Z,75.25
2022-11-30T22:49:06.939Z,77.70
2022-11-30T22:51:34.770Z,76.61
2022-11-30T22:54:02.093Z,74.83
2022-11-30T22:56:31.908Z,75.20
2022-11-30T22:59:00.683Z,75.06
2022-11-30T23:01:33.203Z,74.76
2022-11-30T23:04:11.618Z,76.32
2022-11-30T23:06:40.304Z,76.69
2022-11-30T23:09:10.509Z,75.10
2022-11-30T23:11:37.171Z,78.06
2022-11-30T23:14:06.118Z,76.92
2022-11-30T23:16:32.626Z,78.07
2022-11-30T23:19:00.234Z,77.43
2022-11-30T23:21:30.409Z,79.18
2022-11-30T23:24:00.419Z,78.88
2022-11-30T23:26:29.779Z,77.92
2022-11-30T23:28:59.920Z,77.55
2022-11-30T23:31:32.564Z,78.19
2022-11-30T23:34:10.996Z,78.50
2022-11-30T23:36:37.681Z,80.22
2022-11-30T23:39:15.536Z,79.82
2022-11-30T23:41:42.616Z,78.83
2022-11-30T23:44:10.090Z,77.87
2022-11-30T23:46:37.486Z,79.05
2022-11-30T23:49:04.216Z,80.83
2022-11-30T23:51:30.981Z,80.71
2022-11-30T23:53:57.388Z,79.51
2022-11-30T23:56:24.556Z,80.46
2022-11-30T23:58:51.632Z,79.17
